createdAt,value
2023-02-02T00:00:00.126Z,5.60
2023-02-02T00:01:00.029Z,5.63
2023-02-02T00:01:59.966Z,5.59
2023-02-02T00:02:59.898Z,5.65
2023-02-02T00:03:59.848Z,5.67
2023-02-02T00:04:59.752Z,5.60
2023-02-02T00:05:59.686Z,5.59
2023-02-02T00:06:59.623Z,5.69
2023-02-02T00:07:59.545Z,5.63
2023-02-02T00:08:59.482Z,5.62
2023-02-02T00:09:59.401Z,5.65
2023-02-02T00:10:59.333Z,5.62
2023-02-02T00:11:59.277Z,5.63
2023-02-02T00:12:59.193Z,5.63
2023-02-02T00:13:59.174Z,5.69
2023-02-02T00:14:59.056Z,5.63
2023-02-02T00:15:59.022Z,5.70
2023-02-02T00:16:58.921Z,5.60
2023-02-02T00:17:58.853Z,5.70
2023-02-02T00:18:58.767Z,5.66
2023-02-02T00:19:58.701Z,5.74
2023-02-02T00:20:58.644Z,5.78
2023-02-02T00:21:58.571Z,5.70
2023-02-02T00:22:58.491Z,5.77
2023-02-02T00:23:58.437Z,5.80
2023-02-02T00:24:58.371Z,5.74
2023-02-02T00:25:58.302Z,5.75
2023-02-02T00:26:58.215Z,5.70
2023-02-02T00:27:58.160Z,5.83
2023-02-02T00:28:58.086Z,5.77
2023-02-02T00:29:58.015Z,5.74
2023-02-02T00:30:58.022Z,5.75
2023-02-02T00:31:57.870Z,5.75
2023-02-02T00:32:57.815Z,5.77
2023-02-02T00:33:57.738Z,5.78
2023-02-02T00:34:57.664Z,5.81
2023-02-02T00:35:57.598Z,5.77
2023-02-02T00:36:57.529Z,5.83
2023-02-02T00:37:57.457Z,5.74
2023-02-02T00:38:57.389Z,5.77
2023-02-02T00:39:57.317Z,5.75
2023-02-02T00:40:57.248Z,5.77
2023-02-02T00:41:57.180Z,5.66
2023-02-02T00:42:57.124Z,5.70
2023-02-02T00:43:57.051Z,5.78
2023-02-02T00:44:56.968Z,5.78
2023-02-02T00:45:57.044Z,5.84
2023-02-02T00:46:56.830Z,5.73
2023-02-02T00:47:56.759Z,5.81
2023-02-02T00:48:56.693Z,5.70
2023-02-02T00:49:56.642Z,5.73
2023-02-02T00:50:56.557Z,5.85
2023-02-02T00:51:56.492Z,5.87
2023-02-02T00:52:56.412Z,5.81
2023-02-02T00:53:56.342Z,5.78
2023-02-02T00:54:56.274Z,5.74
2023-02-02T00:55:56.206Z,5.73
2023-02-02T00:56:56.129Z,5.73
2023-02-02T00:57:56.067Z,5.75
2023-02-02T00:58:56.013Z,5.65
2023-02-02T00:59:55.951Z,5.59
2023-02-02T01:00:55.865Z,5.65
2023-02-02T01:01:55.868Z,5.66
2023-02-02T01:02:55.724Z,5.73
2023-02-02T01:03:55.655Z,5.73
2023-02-02T01:04:55.580Z,5.59
2023-02-02T01:05:55.512Z,5.65
2023-02-02T01:06:55.459Z,5.58
2023-02-02T01:07:55.369Z,5.69
2023-02-02T01:08:55.307Z,5.58
2023-02-02T01:09:55.236Z,5.63
2023-02-02T01:10:55.168Z,5.62
2023-02-02T01:11:55.111Z,5.73
2023-02-02T01:12:55.024Z,5.69
2023-02-02T01:13:54.953Z,5.70
2023-02-02T01:14:54.878Z,5.63
2023-02-02T01:15:54.808Z,5.59
2023-02-02T01:16:54.738Z,5.65
2023-02-02T01:17:54.668Z,5.62
2023-02-02T01:18:54.612Z,5.65
2023-02-02T01:19:54.533Z,5.63
2023-02-02T01:20:54.463Z,5.67
2023-02-02T01:21:54.391Z,5.67
2023-02-02T01:22:54.335Z,5.63
2023-02-02T01:23:54.253Z,5.65
2023-02-02T01:24:54.178Z,5.63
2023-02-02T01:25:54.112Z,5.65
2023-02-02T01:26:54.062Z,5.66
2023-02-02T01:27:53.974Z,5.69
2023-02-02T01:28:53.910Z,5.77
2023-02-02T01:29:53.832Z,5.63
2023-02-02T01:30:53.816Z,5.63
2023-02-02T01:31:53.722Z,5.69
2023-02-02T01:32:53.624Z,5.66
2023-02-02T01:33:53.556Z,5.65
2023-02-02T01:34:53.487Z,5.63
2023-02-02T01:35:53.414Z,5.63
2023-02-02T01:36:53.343Z,5.60
2023-02-02T01:37:53.346Z,5.63
2023-02-02T01:38:53.219Z,5.66
2023-02-02T01:39:53.137Z,5.66
2023-02-02T01:40:53.063Z,5.62
2023-02-02T01:41:52.995Z,5.65
2023-02-02T01:42:52.923Z,5.66
2023-02-02T01:43:52.933Z,5.66
2023-02-02T01:44:52.809Z,5.62
2023-02-02T01:45:52.762Z,5.66
2023-02-02T01:46:52.648Z,5.63
2023-02-02T01:47:52.581Z,5.60
2023-02-02T01:48:52.501Z,5.67
2023-02-02T01:49:52.439Z,5.65
2023-02-02T01:50:52.367Z,5.69
2023-02-02T01:51:52.297Z,5.69
2023-02-02T01:52:52.226Z,5.67
2023-02-02T01:53:52.161Z,5.70
2023-02-02T01:54:52.095Z,5.63
2023-02-02T01:55:52.017Z,5.66
2023-02-02T01:56:51.959Z,5.62
2023-02-02T01:57:51.883Z,5.60
2023-02-02T01:58:51.815Z,5.70
2023-02-02T01:59:51.733Z,5.58
2023-02-02T02:00:51.670Z,5.65
2023-02-02T02:01:51.612Z,5.62
2023-02-02T02:02:51.533Z,5.58
2023-02-02T02:03:51.460Z,5.66
2023-02-02T02:04:51.388Z,5.67
2023-02-02T02:05:51.347Z,5.63
2023-02-02T02:06:51.263Z,5.67
2023-02-02T02:07:51.188Z,5.66
2023-02-02T02:08:51.109Z,5.66
2023-02-02T02:09:51.042Z,5.73
2023-02-02T02:10:50.976Z,5.75
2023-02-02T02:11:50.903Z,5.73
2023-02-02T02:12:50.839Z,5.69
2023-02-02T02:13:50.759Z,5.73
2023-02-02T02:14:50.693Z,5.78
2023-02-02T02:15:50.629Z,5.74
2023-02-02T02:16:50.569Z,5.67
2023-02-02T02:17:50.489Z,5.69
2023-02-02T02:18:50.412Z,5.67
2023-02-02T02:19:50.341Z,5.74
2023-02-02T02:20:50.280Z,5.75
2023-02-02T02:21:50.214Z,5.73
2023-02-02T02:22:50.152Z,5.75
2023-02-02T02:23:50.059Z,5.80
2023-02-02T02:24:49.988Z,5.78
2023-02-02T02:25:49.928Z,5.84
2023-02-02T02:26:49.936Z,5.87
2023-02-02T02:27:49.791Z,5.87
2023-02-02T02:28:49.717Z,5.88
2023-02-02T02:29:49.660Z,5.88
2023-02-02T02:30:49.694Z,5.95
2023-02-02T02:31:49.601Z,5.92
2023-02-02T02:32:49.460Z,5.95
2023-02-02T02:33:49.384Z,5.95
2023-02-02T02:34:49.308Z,5.85
2023-02-02T02:35:49.235Z,5.87
2023-02-02T02:36:49.168Z,5.85
2023-02-02T02:37:49.105Z,5.88
2023-02-02T02:38:49.031Z,5.92
2023-02-02T02:39:48.953Z,5.93
2023-02-02T02:40:48.896Z,6.01
2023-02-02T02:41:48.826Z,6.02
2023-02-02T02:42:48.753Z,6.08
2023-02-02T02:43:48.696Z,6.05
2023-02-02T02:44:48.625Z,6.06
2023-02-02T02:45:48.578Z,6.17
2023-02-02T02:46:48.481Z,6.14
2023-02-02T02:47:48.408Z,6.11
2023-02-02T02:48:48.359Z,6.17
2023-02-02T02:49:48.265Z,6.17
2023-02-02T02:50:48.192Z,6.14
2023-02-02T02:51:48.120Z,6.20
2023-02-02T02:52:48.065Z,6.14
2023-02-02T02:53:47.982Z,6.13
2023-02-02T02:54:47.922Z,6.10
2023-02-02T02:55:47.868Z,6.10
2023-02-02T02:56:47.778Z,6.21
2023-02-02T02:57:47.716Z,6.16
2023-02-02T02:58:47.638Z,6.24
2023-02-02T02:59:47.558Z,6.21
2023-02-02T03:00:47.503Z,6.30
2023-02-02T03:01:47.507Z,6.20
2023-02-02T03:02:47.381Z,6.25
2023-02-02T03:03:47.292Z,6.25
2023-02-02T03:04:47.218Z,6.27
2023-02-02T03:05:47.180Z,6.27
2023-02-02T03:06:47.095Z,6.21
2023-02-02T03:07:47.013Z,6.21
2023-02-02T03:08:46.949Z,6.24
2023-02-02T03:09:46.869Z,6.21
2023-02-02T03:10:46.822Z,6.19
2023-02-02T03:11:46.743Z,6.36
2023-02-02T03:12:46.661Z,6.39
2023-02-02T03:13:46.604Z,6.33
2023-02-02T03:14:46.522Z,6.28
2023-02-02T03:15:46.513Z,6.24
2023-02-02T03:16:46.399Z,6.25
2023-02-02T03:17:46.388Z,6.30
2023-02-02T03:18:46.252Z,6.35
2023-02-02T03:19:46.187Z,6.33
2023-02-02T03:20:46.128Z,6.25
2023-02-02T03:21:46.046Z,6.27
2023-02-02T03:22:45.970Z,6.30
2023-02-02T03:23:45.922Z,6.25
2023-02-02T03:24:45.847Z,6.32
2023-02-02T03:25:45.763Z,6.28
2023-02-02T03:26:45.788Z,6.33
2023-02-02T03:27:45.631Z,6.33
2023-02-02T03:28:45.567Z,6.32
2023-02-02T03:29:45.517Z,6.30
2023-02-02T03:30:45.457Z,6.25
2023-02-02T03:31:45.377Z,6.35
2023-02-02T03:32:45.298Z,6.28
2023-02-02T03:33:45.239Z,6.28
2023-02-02T03:34:45.146Z,6.35
2023-02-02T03:35:45.085Z,6.32
2023-02-02T03:36:45.003Z,6.27
2023-02-02T03:37:44.961Z,6.40
2023-02-02T03:38:44.940Z,6.38
2023-02-02T03:39:44.812Z,6.27
2023-02-02T03:40:44.741Z,6.20
2023-02-02T03:41:44.667Z,6.21
2023-02-02T03:42:44.618Z,6.24
2023-02-02T03:43:44.539Z,6.24
2023-02-02T03:44:44.457Z,6.20
2023-02-02T03:45:44.387Z,6.24
2023-02-02T03:46:44.400Z,6.20
2023-02-02T03:47:44.246Z,6.25
2023-02-02T03:48:44.180Z,6.16
2023-02-02T03:49:44.109Z,6.20
2023-02-02T03:50:44.048Z,6.25
2023-02-02T03:51:43.987Z,6.13
2023-02-02T03:52:43.905Z,6.21
2023-02-02T03:53:43.910Z,6.19
2023-02-02T03:54:43.785Z,6.24
2023-02-02T03:55:43.717Z,6.21
2023-02-02T03:56:43.642Z,6.21
2023-02-02T03:57:43.658Z,6.19
2023-02-02T03:58:43.499Z,6.20
2023-02-02T03:59:43.426Z,6.19
2023-02-02T04:00:43.351Z,6.21
2023-02-02T04:01:43.332Z,6.21
2023-02-02T04:02:43.243Z,6.19
2023-02-02T04:03:43.153Z,6.24
2023-02-02T04:04:43.079Z,6.24
2023-02-02T04:05:42.997Z,6.24
2023-02-02T04:06:42.936Z,6.27
2023-02-02T04:07:42.867Z,6.24
2023-02-02T04:08:42.796Z,6.19
2023-02-02T04:09:42.727Z,6.24
2023-02-02T04:10:42.669Z,6.24
2023-02-02T04:11:42.592Z,6.25
2023-02-02T04:12:42.534Z,6.25
2023-02-02T04:13:42.447Z,6.20
2023-02-02T04:14:42.387Z,6.24
2023-02-02T04:15:42.309Z,6.21
2023-02-02T04:16:42.246Z,6.21
2023-02-02T04:17:42.171Z,6.13
2023-02-02T04:18:42.113Z,6.17
2023-02-02T04:19:42.038Z,6.24
2023-02-02T04:20:41.978Z,6.20
2023-02-02T04:21:41.912Z,6.27
2023-02-02T04:22:41.844Z,6.19
2023-02-02T04:23:41.760Z,6.25
2023-02-02T04:24:41.694Z,6.21
2023-02-02T04:25:41.617Z,6.27
2023-02-02T04:26:41.580Z,6.21
2023-02-02T04:27:41.482Z,6.28
2023-02-02T04:28:41.419Z,6.25
2023-02-02T04:29:41.349Z,6.27
2023-02-02T04:30:41.297Z,6.33
2023-02-02T04:31:41.251Z,6.33
2023-02-02T04:32:41.142Z,6.33
2023-02-02T04:33:41.082Z,6.28
2023-02-02T04:34:41.006Z,6.28
2023-02-02T04:35:40.935Z,6.38
2023-02-02T04:36:40.860Z,6.28
2023-02-02T04:37:40.797Z,6.28
2023-02-02T04:38:40.733Z,6.33
2023-02-02T04:39:40.654Z,6.32
2023-02-02T04:40:40.584Z,6.30
2023-02-02T04:41:40.526Z,6.36
2023-02-02T04:42:40.448Z,6.38
2023-02-02T04:43:40.392Z,6.38
2023-02-02T04:44:40.311Z,6.32
2023-02-02T04:45:40.289Z,6.32
2023-02-02T04:46:40.172Z,6.27
2023-02-02T04:47:40.112Z,6.40
2023-02-02T04:48:40.059Z,6.28
2023-02-02T04:49:39.967Z,6.35
2023-02-02T04:50:39.898Z,6.25
2023-02-02T04:51:39.839Z,6.30
2023-02-02T04:52:39.767Z,6.38
2023-02-02T04:53:39.702Z,6.33
2023-02-02T04:54:39.623Z,6.42
2023-02-02T04:55:39.553Z,6.38
2023-02-02T04:56:39.487Z,6.39
2023-02-02T04:57:39.415Z,6.42
2023-02-02T04:58:39.346Z,6.38
2023-02-02T04:59:42.192Z,6.43
2023-02-02T05:00:39.222Z,6.39
2023-02-02T05:01:39.140Z,6.36
2023-02-02T05:02:39.066Z,6.42
2023-02-02T05:03:39.000Z,6.39
2023-02-02T05:04:38.971Z,6.35
2023-02-02T05:05:38.882Z,6.42
2023-02-02T05:06:38.793Z,6.39
2023-02-02T05:07:38.722Z,6.43
2023-02-02T05:08:38.660Z,6.40
2023-02-02T05:09:38.623Z,6.43
2023-02-02T05:10:38.518Z,6.40
2023-02-02T05:11:38.446Z,6.40
2023-02-02T05:12:38.399Z,6.40
2023-02-02T05:13:38.311Z,6.40
2023-02-02T05:14:38.252Z,6.40
2023-02-02T05:15:38.178Z,6.33
2023-02-02T05:16:38.119Z,6.39
2023-02-02T05:17:38.039Z,6.42
2023-02-02T05:18:37.994Z,6.36
2023-02-02T05:19:37.892Z,6.38
2023-02-02T05:20:37.836Z,6.38
2023-02-02T05:21:37.761Z,6.42
2023-02-02T05:22:37.692Z,6.38
2023-02-02T05:23:37.621Z,6.30
2023-02-02T05:24:37.565Z,6.36
2023-02-02T05:25:37.482Z,6.35
2023-02-02T05:26:37.448Z,6.40
2023-02-02T05:27:37.364Z,6.39
2023-02-02T05:28:37.279Z,6.42
2023-02-02T05:29:37.218Z,6.40
2023-02-02T05:30:37.169Z,6.39
2023-02-02T05:31:37.143Z,6.42
2023-02-02T05:32:37.001Z,6.40
2023-02-02T05:33:36.932Z,6.38
2023-02-02T05:34:36.867Z,6.43
2023-02-02T05:35:36.800Z,6.38
2023-02-02T05:36:36.740Z,6.35
2023-02-02T05:37:36.657Z,6.38
2023-02-02T05:38:36.599Z,6.40
2023-02-02T05:39:36.527Z,6.39
2023-02-02T05:40:36.456Z,6.43
2023-02-02T05:41:36.378Z,6.39
2023-02-02T05:42:36.346Z,6.39
2023-02-02T05:43:36.249Z,6.38
2023-02-02T05:44:36.183Z,6.38
2023-02-02T05:45:36.268Z,6.43
2023-02-02T05:46:36.048Z,6.43
2023-02-02T05:47:35.969Z,6.39
2023-02-02T05:48:35.905Z,6.43
2023-02-02T05:49:35.835Z,6.51
2023-02-02T05:50:35.761Z,6.48
2023-02-02T05:51:35.694Z,6.53
2023-02-02T05:52:35.627Z,6.46
2023-02-02T05:53:35.564Z,6.35
2023-02-02T05:54:35.486Z,6.46
2023-02-02T05:55:35.421Z,6.35
2023-02-02T05:56:35.353Z,6.38
2023-02-02T05:57:35.278Z,6.42
2023-02-02T05:58:35.227Z,6.42
2023-02-02T05:59:35.137Z,6.48
2023-02-02T06:00:35.069Z,6.38
2023-02-02T06:01:35.015Z,6.38
2023-02-02T06:02:34.943Z,6.43
2023-02-02T06:03:34.956Z,6.39
2023-02-02T06:04:34.800Z,6.27
2023-02-02T06:05:34.727Z,6.38
2023-02-02T06:06:34.662Z,6.40
2023-02-02T06:07:34.597Z,6.38
2023-02-02T06:08:34.542Z,6.30
2023-02-02T06:09:34.459Z,6.32
2023-02-02T06:10:34.395Z,6.32
2023-02-02T06:11:34.319Z,6.25
2023-02-02T06:12:34.251Z,6.32
2023-02-02T06:13:34.181Z,6.32
2023-02-02T06:14:34.126Z,6.35
2023-02-02T06:15:34.106Z,6.28
2023-02-02T06:16:33.969Z,6.42
2023-02-02T06:17:33.899Z,6.35
2023-02-02T06:18:33.861Z,6.33
2023-02-02T06:19:33.776Z,6.33
2023-02-02T06:20:33.712Z,6.33
2023-02-02T06:21:33.624Z,6.30
2023-02-02T06:22:33.560Z,6.32
2023-02-02T06:23:33.486Z,6.27
2023-02-02T06:24:33.420Z,6.36
2023-02-02T06:25:33.385Z,6.32
2023-02-02T06:26:33.425Z,6.32
2023-02-02T06:27:33.217Z,6.30
2023-02-02T06:28:33.153Z,6.30
2023-02-02T06:29:33.086Z,6.35
2023-02-02T06:30:33.141Z,6.30
2023-02-02T06:31:33.056Z,6.39
2023-02-02T06:32:32.867Z,6.27
2023-02-02T06:33:32.818Z,6.21
2023-02-02T06:34:32.731Z,6.28
2023-02-02T06:35:32.661Z,6.24
2023-02-02T06:36:32.589Z,6.27
2023-02-02T06:37:32.536Z,6.32
2023-02-02T06:38:32.451Z,6.32
2023-02-02T06:39:32.389Z,6.28
2023-02-02T06:40:32.321Z,6.28
2023-02-02T06:41:32.274Z,6.28
2023-02-02T06:42:32.187Z,6.30
2023-02-02T06:43:32.106Z,6.32
2023-02-02T06:44:32.045Z,6.27
2023-02-02T06:45:31.973Z,6.19
2023-02-02T06:46:32.001Z,6.25
2023-02-02T06:47:31.845Z,6.39
2023-02-02T06:48:31.795Z,6.30
2023-02-02T06:49:31.697Z,6.30
2023-02-02T06:50:31.629Z,6.25
2023-02-02T06:51:31.578Z,6.28
2023-02-02T06:52:31.490Z,6.35
2023-02-02T06:53:31.424Z,6.27
2023-02-02T06:54:31.352Z,6.21
2023-02-02T06:55:31.286Z,6.24
2023-02-02T06:56:31.211Z,6.19
2023-02-02T06:57:31.147Z,6.27
2023-02-02T06:58:31.073Z,6.27
2023-02-02T06:59:31.006Z,6.39
2023-02-02T07:00:31.039Z,6.27
2023-02-02T07:01:30.963Z,6.39
2023-02-02T07:02:30.842Z,6.24
2023-02-02T07:03:30.735Z,6.21
2023-02-02T07:04:30.672Z,6.16
2023-02-02T07:05:31.169Z,6.20
2023-02-02T07:06:30.536Z,6.20
2023-02-02T07:07:30.458Z,6.21
2023-02-02T07:08:30.402Z,6.21
2023-02-02T07:09:30.317Z,6.33
2023-02-02T07:11:14.737Z,6.21
2023-02-02T07:11:30.192Z,6.30
2023-02-02T07:12:30.117Z,6.30
2023-02-02T07:13:30.049Z,6.32
2023-02-02T07:14:29.971Z,6.33
2023-02-02T07:15:29.903Z,6.28
2023-02-02T07:16:29.838Z,6.36
2023-02-02T07:17:29.787Z,6.32
2023-02-02T07:18:29.695Z,6.36
2023-02-02T07:19:29.627Z,6.33
2023-02-02T07:20:29.664Z,6.38
2023-02-02T07:21:29.513Z,6.28
2023-02-02T07:22:29.451Z,6.27
2023-02-02T07:23:29.375Z,6.38
2023-02-02T07:24:29.281Z,6.39
2023-02-02T07:25:29.250Z,6.45
2023-02-02T07:26:29.196Z,6.39
2023-02-02T07:27:29.075Z,6.36
2023-02-02T07:28:29.017Z,6.30
2023-02-02T07:29:28.956Z,6.33
2023-02-02T07:30:28.955Z,6.30
2023-02-02T07:31:28.811Z,6.27
2023-02-02T07:32:28.733Z,6.25
2023-02-02T07:33:28.670Z,6.21
2023-02-02T07:34:28.599Z,6.21
2023-02-02T07:35:28.538Z,6.20
2023-02-02T07:36:28.456Z,6.17
2023-02-02T07:37:28.386Z,6.24
2023-02-02T07:38:28.329Z,6.25
2023-02-02T07:39:28.259Z,6.21
2023-02-02T07:40:28.256Z,6.28
2023-02-02T07:41:28.126Z,6.27
2023-02-02T07:42:28.046Z,6.25
2023-02-02T07:43:27.984Z,6.20
2023-02-02T07:44:27.903Z,6.19
2023-02-02T07:45:28.174Z,6.13
2023-02-02T07:46:27.845Z,6.16
2023-02-02T07:47:27.714Z,6.13
2023-02-02T07:48:27.636Z,6.10
2023-02-02T07:49:27.564Z,6.14
2023-02-02T07:50:27.552Z,6.14
2023-02-02T07:51:27.427Z,6.14
2023-02-02T07:52:27.355Z,6.17
2023-02-02T07:53:27.294Z,6.19
2023-02-02T07:54:27.213Z,6.20
2023-02-02T07:55:27.373Z,6.27
2023-02-02T07:56:27.079Z,6.27
2023-02-02T07:57:27.023Z,6.27
2023-02-02T07:58:26.944Z,6.32
2023-02-02T07:59:26.878Z,6.35
2023-02-02T08:00:26.997Z,6.40
2023-02-02T08:01:26.899Z,6.50
2023-02-02T08:02:26.730Z,6.61
2023-02-02T08:03:26.601Z,6.58
2023-02-02T08:04:26.541Z,6.65
2023-02-02T08:05:26.930Z,6.71
2023-02-02T08:06:26.402Z,6.81
2023-02-02T08:07:26.339Z,6.76
2023-02-02T08:08:26.262Z,6.73
2023-02-02T08:09:26.192Z,6.99
2023-02-02T08:10:26.135Z,6.97
2023-02-02T08:11:26.079Z,7.05
2023-02-02T08:12:25.994Z,7.16
2023-02-02T08:13:25.949Z,7.33
2023-02-02T08:14:25.854Z,7.42
2023-02-02T08:15:26.188Z,7.44
2023-02-02T08:16:25.738Z,7.47
2023-02-02T08:17:25.674Z,7.26
2023-02-02T08:18:25.616Z,7.19
2023-02-02T08:19:25.534Z,7.29
2023-02-02T08:20:25.458Z,7.26
2023-02-02T08:21:25.414Z,7.32
2023-02-02T08:22:25.329Z,7.44
2023-02-02T08:23:25.267Z,7.44
2023-02-02T08:24:25.200Z,7.48
2023-02-02T08:25:25.507Z,7.30
2023-02-02T08:26:25.099Z,7.36
2023-02-02T08:27:25.004Z,7.27
2023-02-02T08:28:24.938Z,7.16
2023-02-02T08:29:24.865Z,7.08
2023-02-02T08:30:24.966Z,7.12
2023-02-02T08:31:24.794Z,7.45
2023-02-02T08:32:24.691Z,7.69
2023-02-02T08:33:24.612Z,7.82
2023-02-02T08:34:24.546Z,8.18
2023-02-02T08:35:24.879Z,8.12
2023-02-02T08:36:24.421Z,7.84
2023-02-02T08:37:24.344Z,7.95
2023-02-02T08:38:24.274Z,8.09
2023-02-02T08:39:24.206Z,8.21
2023-02-02T08:40:24.284Z,8.18
2023-02-02T08:41:24.153Z,8.39
2023-02-02T08:42:24.011Z,8.46
2023-02-02T08:43:24.001Z,8.68
2023-02-02T08:44:23.884Z,8.73
2023-02-02T08:46:04.017Z,8.58
2023-02-02T08:46:23.767Z,8.47
2023-02-02T08:47:23.695Z,8.57
2023-02-02T08:48:23.632Z,8.46
2023-02-02T08:49:23.560Z,8.68
2023-02-02T08:50:23.537Z,8.70
2023-02-02T08:51:23.441Z,8.70
2023-02-02T08:52:25.699Z,8.88
2023-02-02T08:53:23.323Z,8.88
2023-02-02T08:54:23.240Z,8.68
2023-02-02T08:55:23.558Z,8.65
2023-02-02T08:56:23.119Z,8.83
2023-02-02T08:57:23.092Z,8.64
2023-02-02T08:58:22.989Z,8.83
2023-02-02T08:59:22.933Z,8.78
2023-02-02T09:00:22.872Z,8.60
2023-02-02T09:01:22.873Z,8.58
2023-02-02T09:02:22.794Z,8.49
2023-02-02T09:03:22.677Z,8.46
2023-02-02T09:04:22.612Z,8.28
2023-02-02T09:05:22.724Z,8.17
2023-02-02T09:06:22.486Z,8.12
2023-02-02T09:07:22.432Z,8.03
2023-02-02T09:08:22.396Z,7.99
2023-02-02T09:09:22.308Z,7.96
2023-02-02T09:10:22.259Z,7.91
2023-02-02T09:11:22.169Z,7.95
2023-02-02T09:12:22.100Z,7.81
2023-02-02T09:13:23.347Z,7.71
2023-02-02T09:14:22.001Z,7.66
2023-02-02T09:15:22.145Z,7.73
2023-02-02T09:16:21.881Z,7.70
2023-02-02T09:17:21.783Z,7.69
2023-02-02T09:18:21.721Z,7.50
2023-02-02T09:19:21.675Z,7.69
2023-02-02T09:20:21.637Z,7.74
2023-02-02T09:21:21.529Z,7.77
2023-02-02T09:22:21.456Z,7.77
2023-02-02T09:23:21.389Z,7.95
2023-02-02T09:24:21.336Z,7.99
2023-02-02T09:25:21.304Z,8.00
2023-02-02T09:26:21.230Z,8.12
2023-02-02T09:27:21.146Z,8.25
2023-02-02T09:28:21.088Z,8.28
2023-02-02T09:29:20.999Z,8.20
2023-02-02T09:30:21.112Z,8.06
2023-02-02T09:31:20.962Z,7.99
2023-02-02T09:32:20.807Z,7.99
2023-02-02T09:33:20.737Z,8.13
2023-02-02T09:34:20.677Z,7.94
2023-02-02T09:35:20.612Z,7.96
2023-02-02T09:36:20.550Z,8.00
2023-02-02T09:37:20.477Z,7.99
2023-02-02T09:38:20.419Z,8.14
2023-02-02T09:39:20.348Z,8.18
2023-02-02T09:40:20.312Z,8.10
2023-02-02T09:41:20.217Z,8.10
2023-02-02T09:42:20.147Z,8.17
2023-02-02T09:43:20.085Z,8.17
2023-02-02T09:44:20.038Z,8.00
2023-02-02T09:45:19.958Z,8.14
2023-02-02T09:46:19.908Z,8.09
2023-02-02T09:47:19.828Z,8.09
2023-02-02T09:48:19.759Z,7.99
2023-02-02T09:49:19.688Z,7.76
2023-02-02T09:50:19.695Z,7.84
2023-02-02T09:51:19.565Z,7.81
2023-02-02T09:52:19.505Z,7.81
2023-02-02T09:53:19.429Z,7.89
2023-02-02T09:54:19.370Z,7.91
2023-02-02T09:55:19.308Z,7.88
2023-02-02T09:56:19.233Z,7.96
2023-02-02T09:57:19.165Z,7.94
2023-02-02T09:58:19.101Z,7.92
2023-02-02T09:59:21.442Z,7.89
2023-02-02T10:00:19.089Z,7.76
2023-02-02T10:01:18.932Z,7.79
2023-02-02T10:02:18.833Z,7.66
2023-02-02T10:03:18.774Z,7.70
2023-02-02T10:04:18.771Z,7.69
2023-02-02T10:05:18.643Z,8.02
2023-02-02T10:06:18.575Z,7.99
2023-02-02T10:07:18.556Z,8.04
2023-02-02T10:08:32.592Z,7.99
2023-02-02T10:09:18.372Z,7.95
2023-02-02T10:10:18.304Z,7.95
2023-02-02T10:11:18.237Z,7.89
2023-02-02T10:12:18.175Z,7.94
2023-02-02T10:13:18.110Z,7.96
2023-02-02T10:14:18.046Z,7.94
2023-02-02T10:15:18.734Z,7.95
2023-02-02T10:16:18.104Z,7.82
2023-02-02T10:17:17.842Z,7.79
2023-02-02T10:18:17.780Z,7.77
2023-02-02T10:19:17.746Z,7.73
2023-02-02T10:20:17.690Z,7.70
2023-02-02T10:21:17.596Z,7.62
2023-02-02T10:22:17.512Z,7.58
2023-02-02T10:23:17.463Z,7.88
2023-02-02T10:24:17.385Z,7.92
2023-02-02T10:25:17.311Z,7.86
2023-02-02T10:26:17.299Z,7.95
2023-02-02T10:27:17.229Z,8.55
2023-02-02T10:28:17.132Z,8.68
2023-02-02T10:29:17.041Z,8.49
2023-02-02T10:30:16.981Z,8.71
2023-02-02T10:31:17.056Z,8.49
2023-02-02T10:32:16.846Z,8.36
2023-02-02T10:33:16.777Z,8.42
2023-02-02T10:34:16.733Z,8.88
2023-02-02T10:35:16.719Z,9.32
2023-02-02T10:36:16.587Z,9.45
2023-02-02T10:37:16.525Z,9.56
2023-02-02T10:38:16.453Z,9.60
2023-02-02T10:39:16.384Z,9.48
2023-02-02T10:40:16.343Z,9.31
2023-02-02T10:41:16.274Z,9.34
2023-02-02T10:42:16.196Z,9.19
2023-02-02T10:43:16.131Z,9.03
2023-02-02T10:44:16.062Z,8.88
2023-02-02T10:45:15.994Z,8.76
2023-02-02T10:46:15.990Z,8.63
2023-02-02T10:47:15.869Z,8.39
2023-02-02T10:48:15.818Z,8.29
2023-02-02T10:49:15.827Z,8.20
2023-02-02T10:50:15.695Z,8.13
2023-02-02T10:51:15.617Z,8.18
2023-02-02T10:52:15.573Z,8.06
2023-02-02T10:53:15.522Z,8.09
2023-02-02T10:54:15.426Z,8.14
2023-02-02T10:55:15.351Z,8.12
2023-02-02T10:56:15.293Z,8.17
2023-02-02T10:57:15.232Z,8.13
2023-02-02T10:58:15.156Z,8.10
2023-02-02T10:59:15.089Z,8.12
2023-02-02T11:00:15.064Z,8.13
2023-02-02T11:01:15.003Z,8.18
2023-02-02T11:02:20.741Z,8.28
2023-02-02T11:03:14.842Z,8.25
2023-02-02T11:04:14.773Z,8.27
2023-02-02T11:05:14.696Z,8.36
2023-02-02T11:06:14.630Z,8.31
2023-02-02T11:07:14.572Z,8.28
2023-02-02T11:08:14.513Z,8.32
2023-02-02T11:09:14.436Z,8.64
2023-02-02T11:10:14.366Z,8.57
2023-02-02T11:11:14.307Z,8.73
2023-02-02T11:12:14.265Z,8.88
2023-02-02T11:13:14.176Z,8.78
2023-02-02T11:14:14.160Z,9.04
2023-02-02T11:15:14.046Z,8.73
2023-02-02T11:16:14.048Z,8.46
2023-02-02T11:17:13.911Z,8.67
2023-02-02T11:18:13.843Z,8.63
2023-02-02T11:19:13.872Z,8.96
2023-02-02T11:20:13.714Z,9.24
2023-02-02T11:21:13.649Z,9.31
2023-02-02T11:22:13.798Z,9.42
2023-02-02T11:23:13.641Z,9.34
2023-02-02T11:24:13.532Z,9.50
2023-02-02T11:25:13.511Z,9.75
2023-02-02T11:26:13.404Z,9.60
2023-02-02T11:27:13.298Z,9.65
2023-02-02T11:28:13.224Z,9.98
2023-02-02T11:29:13.146Z,9.98
2023-02-02T11:30:13.104Z,9.93
2023-02-02T11:31:13.172Z,10.04
2023-02-02T11:32:12.947Z,10.11
2023-02-02T11:33:12.884Z,10.17
2023-02-02T11:34:12.817Z,9.81
2023-02-02T11:35:12.826Z,9.44
2023-02-02T11:36:12.697Z,9.32
2023-02-02T11:37:12.654Z,9.15
2023-02-02T11:38:12.570Z,9.15
2023-02-02T11:39:12.534Z,8.98
2023-02-02T11:40:12.465Z,8.89
2023-02-02T11:41:12.407Z,8.86
2023-02-02T11:42:12.321Z,8.80
2023-02-02T11:43:12.258Z,8.63
2023-02-02T11:44:12.195Z,8.63
2023-02-02T11:45:12.138Z,8.67
2023-02-02T11:46:12.098Z,8.67
2023-02-02T11:47:12.002Z,8.70
2023-02-02T11:48:11.944Z,8.73
2023-02-02T11:49:11.873Z,8.75
2023-02-02T11:50:11.841Z,8.75
2023-02-02T11:51:11.784Z,8.71
2023-02-02T11:52:14.226Z,8.61
2023-02-02T11:53:11.634Z,8.73
2023-02-02T11:54:11.564Z,8.54
2023-02-02T11:55:11.501Z,8.40
2023-02-02T11:56:11.450Z,8.45
2023-02-02T11:57:11.357Z,8.39
2023-02-02T11:58:12.157Z,8.28
2023-02-02T11:59:11.233Z,8.37
2023-02-02T12:00:11.174Z,8.22
2023-02-02T12:01:11.098Z,8.06
2023-02-02T12:02:11.055Z,8.10
2023-02-02T12:03:10.980Z,8.12
2023-02-02T12:04:11.032Z,8.00
2023-02-02T12:05:10.841Z,7.89
2023-02-02T12:06:10.772Z,7.99
2023-02-02T12:07:10.714Z,7.76
2023-02-02T12:08:10.640Z,7.73
2023-02-02T12:09:10.577Z,7.71
2023-02-02T12:10:10.516Z,7.67
2023-02-02T12:11:10.468Z,7.62
2023-02-02T12:12:10.378Z,7.69
2023-02-02T12:13:10.311Z,7.66
2023-02-02T12:14:10.249Z,7.69
2023-02-02T12:15:10.177Z,7.55
2023-02-02T12:16:10.184Z,7.69
2023-02-02T12:17:10.068Z,7.63
2023-02-02T12:18:09.987Z,7.79
2023-02-02T12:19:09.915Z,7.60
2023-02-02T12:20:09.879Z,7.69
2023-02-02T12:21:09.807Z,7.66
2023-02-02T12:22:11.394Z,7.55
2023-02-02T12:23:09.644Z,7.42
2023-02-02T12:24:09.577Z,7.48
2023-02-02T12:25:09.521Z,7.54
2023-02-02T12:26:09.467Z,7.50
2023-02-02T12:27:09.377Z,7.51
2023-02-02T12:28:11.434Z,7.44
2023-02-02T12:29:09.259Z,7.45
2023-02-02T12:30:09.187Z,7.32
2023-02-02T12:31:09.153Z,7.42
2023-02-02T12:32:09.044Z,7.45
2023-02-02T12:33:08.973Z,7.42
2023-02-02T12:34:11.704Z,7.48
2023-02-02T12:35:09.021Z,7.60
2023-02-02T12:36:08.777Z,7.55
2023-02-02T12:37:08.706Z,7.54
2023-02-02T12:38:08.649Z,7.50
2023-02-02T12:39:08.578Z,7.66
2023-02-02T12:40:11.334Z,7.62
2023-02-02T12:41:08.447Z,7.62
2023-02-02T12:42:08.374Z,7.58
2023-02-02T12:43:08.316Z,7.58
2023-02-02T12:44:08.238Z,7.69
2023-02-02T12:45:08.178Z,7.66
2023-02-02T12:46:09.488Z,7.58
2023-02-02T12:47:08.044Z,7.60
2023-02-02T12:48:07.986Z,7.52
2023-02-02T12:49:07.923Z,7.55
2023-02-02T12:50:07.840Z,7.51
2023-02-02T12:51:07.768Z,7.54
2023-02-02T12:52:08.397Z,7.57
2023-02-02T12:53:07.645Z,7.60
2023-02-02T12:54:32.664Z,7.63
2023-02-02T12:55:07.501Z,7.63
2023-02-02T12:56:07.435Z,7.71
2023-02-02T12:57:07.367Z,7.74
2023-02-02T12:58:07.616Z,7.67
2023-02-02T12:59:07.244Z,7.70
2023-02-02T13:00:07.196Z,7.70
2023-02-02T13:01:07.181Z,7.76
2023-02-02T13:02:07.160Z,7.82
2023-02-02T13:03:06.967Z,7.85
2023-02-02T13:04:07.796Z,7.95
2023-02-02T13:05:06.827Z,8.04
2023-02-02T13:06:06.762Z,8.09
2023-02-02T13:07:06.692Z,7.95
2023-02-02T13:08:06.626Z,8.00
2023-02-02T13:09:06.601Z,7.95
2023-02-02T13:10:06.503Z,7.95
2023-02-02T13:11:06.421Z,8.00
2023-02-02T13:12:06.359Z,8.07
2023-02-02T13:13:06.291Z,8.00
2023-02-02T13:14:06.223Z,8.07
2023-02-02T13:15:06.177Z,8.07
2023-02-02T13:16:06.098Z,8.13
2023-02-02T13:17:06.021Z,8.13